Time;durP1;ratioP1;P1;durP2;ratioP2;P2;SDS_P1;SDS_P2;PMS_P1;PMS_P2;Temp;Humidity;BMP_temperature;BMP_pressure;BME280_temperature;BME280_humidity;BME280_pressure;Samples;Min_cycle;Max_cycle;Signal;HPM_P1;HPM_P2
2023/08/30 00:00:07;;;;;;;;;17.60;17.40;;;;;21.19;45.64;98131.72;5039895;28;8833;-78
2023/08/30 00:02:57;;;;;;;;;23.40;22.00;;;;;21.16;45.83;98134.69;5061535;28;8992;-78
2023/08/30 00:05:27;;;;;;;;;21.00;18.60;;;;;21.16;45.95;98142.69;5090763;28;9016;-79
2023/08/30 00:07:56;;;;;;;;;20.20;19.40;;;;;21.12;46.12;98135.91;5091233;28;8845;-77
2023/08/30 00:10:25;;;;;;;;;20.20;18.00;;;;;21.12;45.96;98143.09;5091921;28;9496;-80
2023/08/30 00:12:55;;;;;;;;;16.40;16.20;;;;;21.16;46.16;98147.19;5100965;28;8838;-78
2023/08/30 00:15:24;;;;;;;;;21.00;21.00;;;;;21.13;46.03;98142.13;5103586;28;8894;-77
2023/08/30 00:17:53;;;;;;;;;21.60;18.40;;;;;21.15;46.05;98148.19;5094477;28;8846;-76
2023/08/30 00:20:22;;;;;;;;;17.40;17.20;;;;;21.06;45.84;98145.31;5090150;28;8934;-78
2023/08/30 00:22:51;;;;;;;;;17.60;17.60;;;;;21.05;46.31;98150.81;5089892;28;8869;-79
2023/08/30 00:25:19;;;;;;;;;23.00;22.40;;;;;21.03;46.41;98158.94;5089359;28;8850;-79
2023/08/30 00:27:48;;;;;;;;;21.40;20.80;;;;;21.06;46.51;98163.16;5089718;28;8849;-77
2023/08/30 00:30:18;;;;;;;;;19.00;18.80;;;;;21.06;46.14;98161.34;5090983;28;8900;-78
2023/08/30 00:32:47;;;;;;;;;21.20;20.60;;;;;21.02;46.78;98167.94;5070874;28;8857;-77
2023/08/30 00:35:16;;;;;;;;;22.40;20.80;;;;;20.98;46.83;98163.84;5071540;28;8846;-78
2023/08/30 00:37:45;;;;;;;;;20.40;20.40;;;;;20.88;47.11;98168.25;5072095;28;8842;-78
2023/08/30 00:40:13;;;;;;;;;19.60;18.40;;;;;20.70;47.76;98170.66;5090538;28;8838;-77
2023/08/30 00:42:42;;;;;;;;;18.60;18.60;;;;;20.46;48.46;98161.09;5089905;28;8866;-78
2023/08/30 00:45:11;;;;;;;;;19.00;17.40;;;;;20.18;49.51;98158.97;5072010;28;8901;-78
2023/08/30 00:47:41;;;;;;;;;20.80;20.40;;;;;20.31;49.11;98162.34;5087937;28;9686;-77
2023/08/30 00:50:10;;;;;;;;;19.20;17.60;;;;;20.34;48.88;98158.59;5037441;28;8838;-78
2023/08/30 00:52:39;;;;;;;;;25.40;21.20;;;;;20.40;48.60;98156.25;5075508;28;8852;-79
2023/08/30 00:55:09;;;;;;;;;21.20;20.80;;;;;20.42;48.90;98164.13;5088295;28;8871;-76
2023/08/30 00:57:38;;;;;;;;;19.80;16.20;;;;;20.46;49.12;98165.56;5038028;28;9640;-77
2023/08/30 01:00:10;;;;;;;;;23.40;22.60;;;;;20.46;49.25;98158.44;5095841;28;9713;-77
2023/08/30 01:02:39;;;;;;;;;20.40;20.40;;;;;19.97;51.04;98181.16;5088160;28;8844;-77
2023/08/30 01:05:10;;;;;;;;;22.80;22.80;;;;;20.12;50.67;98186.19;5057455;28;8857;-77
2023/08/30 01:07:39;;;;;;;;;25.20;24.00;;;;;20.02;51.06;98183.44;5076220;28;9654;-77
2023/08/30 01:10:09;;;;;;;;;22.60;22.60;;;;;20.11;50.87;98185.34;5078541;28;8880;-76
2023/08/30 01:12:45;;;;;;;;;25.20;24.00;;;;;20.25;50.56;98194.91;5100628;28;8854;-79
2023/08/30 01:15:18;;;;;;;;;23.60;23.60;;;;;20.28;51.03;98190.16;5037641;28;8858;-78
2023/08/30 01:17:49;;;;;;;;;23.20;22.20;;;;;20.36;50.69;98192.19;5075763;28;8848;-78
2023/08/30 01:20:22;;;;;;;;;24.40;23.00;;;;;20.43;50.48;98193.38;5069936;28;8922;-80
2023/08/30 01:23:00;;;;;;;;;20.20;19.40;;;;;20.35;50.90;98189.63;5069998;28;8836;-82
2023/08/30 01:25:43;;;;;;;;;23.00;22.80;;;;;20.49;50.40;98192.00;5036221;28;8856;-80
2023/08/30 01:28:16;;;;;;;;;25.20;23.40;;;;;20.51;50.00;98197.22;5069384;28;8881;-80
2023/08/30 01:30:46;;;;;;;;;26.00;22.80;;;;;20.46;49.81;98195.78;5052474;28;8840;-80
2023/08/30 01:33:17;;;;;;;;;17.20;17.20;;;;;20.47;50.04;98189.47;5052718;28;8871;-78
2023/08/30 01:35:47;;;;;;;;;20.80;19.60;;;;;20.46;50.02;98192.25;5069530;28;8876;-78
2023/08/30 01:38:16;;;;;;;;;22.00;21.60;;;;;20.44;50.30;98194.22;5028518;28;8945;-78
2023/08/30 01:40:47;;;;;;;;;24.20;23.00;;;;;20.44;50.49;98194.22;5012811;28;8868;-79
2023/08/30 01:43:19;;;;;;;;;21.80;19.60;;;;;20.36;50.85;98194.00;5012702;28;8848;-76
2023/08/30 01:45:48;;;;;;;;;23.00;21.60;;;;;20.44;50.65;98183.53;5013107;28;8860;-78
2023/08/30 01:48:19;;;;;;;;;25.40;24.20;;;;;20.50;50.43;98191.06;4983365;28;9604;-79
2023/08/30 01:50:49;;;;;;;;;26.80;25.00;;;;;20.61;49.91;98174.09;5048661;28;8870;-77
2023/08/30 01:53:18;;;;;;;;;24.60;23.00;;;;;20.69;49.93;98177.00;5048675;28;8923;-81
2023/08/30 01:55:47;;;;;;;;;27.60;25.20;;;;;20.72;49.67;98178.53;5050242;28;9651;-79
2023/08/30 01:58:17;;;;;;;;;22.40;20.40;;;;;20.31;50.80;98186.38;5019344;28;8864;-77
2023/08/30 02:00:46;;;;;;;;;25.40;24.20;;;;;20.32;50.53;98184.56;5052278;28;8867;-78
2023/08/30 02:03:16;;;;;;;;;26.20;24.40;;;;;20.34;50.75;98190.63;5069628;28;8855;-77
2023/08/30 02:05:58;;;;;;;;;24.00;20.40;;;;;20.54;50.37;98189.81;5036289;28;8890;-78
2023/08/30 02:08:36;;;;;;;;;21.60;20.80;;;;;20.62;50.44;98190.00;5036018;28;8852;-77
2023/08/30 02:11:09;;;;;;;;;21.60;20.60;;;;;20.75;50.08;98183.63;5106431;28;8860;-76
2023/08/30 02:13:40;;;;;;;;;27.60;26.20;;;;;20.81;50.03;98196.47;5075403;28;8858;-80
2023/08/30 02:16:10;;;;;;;;;25.20;22.80;;;;;20.88;49.83;98184.28;5092216;28;9615;-80
2023/08/30 02:18:41;;;;;;;;;22.60;22.00;;;;;20.98;49.82;98184.38;5090607;28;8837;-79
2023/08/30 02:21:09;;;;;;;;;24.40;22.00;;;;;21.00;49.36;98174.41;5089831;28;8826;-80
2023/08/30 02:23:38;;;;;;;;;21.40;21.40;;;;;20.91;49.20;98175.16;5056216;28;8954;-78
2023/08/30 02:26:07;;;;;;;;;24.40;21.80;;;;;20.73;49.71;98177.56;5073079;28;8865;-79
2023/08/30 02:28:38;;;;;;;;;23.40;23.00;;;;;20.70;49.77;98175.16;5073335;28;8846;-81
2023/08/30 02:31:09;;;;;;;;;27.80;24.20;;;;;20.77;49.89;98176.34;5057228;28;8842;-77
2023/08/30 02:33:39;;;;;;;;;22.80;22.00;;;;;20.89;49.75;98169.94;5073199;28;8964;-76
2023/08/30 02:36:08;;;;;;;;;24.40;23.20;;;;;20.97;49.54;98164.81;5092734;28;8853;-77
2023/08/30 02:38:37;;;;;;;;;23.20;21.40;;;;;21.04;49.23;98162.47;5058062;28;8882;-78
2023/08/30 02:41:06;;;;;;;;;27.40;26.00;;;;;21.11;49.03;98162.78;5073631;28;8960;-77
2023/08/30 02:43:35;;;;;;;;;26.00;24.00;;;;;21.11;49.32;98160.13;5073660;28;8825;-79
2023/08/30 02:46:05;;;;;;;;;28.20;23.40;;;;;21.12;49.16;98167.13;5075501;28;8873;-76
2023/08/30 02:48:36;;;;;;;;;22.40;21.20;;;;;21.13;48.88;98158.16;5085248;28;8839;-76
2023/08/30 02:51:04;;;;;;;;;26.80;25.80;;;;;21.12;48.83;98148.44;5093685;28;8843;-77
2023/08/30 02:53:33;;;;;;;;;23.60;23.00;;;;;21.15;48.80;98153.53;5093163;28;9675;-77
2023/08/30 02:56:02;;;;;;;;;21.40;20.80;;;;;21.15;48.80;98159.69;5110818;28;8859;-77
2023/08/30 02:58:31;;;;;;;;;23.80;22.60;;;;;21.16;48.24;98152.53;5111806;28;8858;-76
2023/08/30 03:01:03;;;;;;;;;28.00;24.20;;;;;21.15;48.73;98153.53;5093512;28;8855;-79
2023/08/30 03:03:32;;;;;;;;;21.60;21.60;;;;;21.06;48.91;98163.16;5113264;28;8851;-77
2023/08/30 03:06:02;;;;;;;;;21.80;21.60;;;;;21.02;48.82;98159.06;5124725;28;8848;-78
2023/08/30 03:08:32;;;;;;;;;26.80;24.20;;;;;20.87;49.27;98154.03;5107429;28;8854;-79
2023/08/30 03:11:09;;;;;;;;;20.20;18.60;;;;;20.97;49.13;98164.81;5093781;28;8871;-77
2023/08/30 03:13:40;;;;;;;;;26.80;22.60;;;;;20.90;49.43;98162.75;5090194;28;9002;-81
2023/08/30 03:16:12;;;;;;;;;20.40;18.80;;;;;20.93;49.09;98167.88;5092743;28;8851;-78
2023/08/30 03:18:43;;;;;;;;;25.00;24.40;;;;;20.86;49.15;98167.53;5046849;28;8850;-78
2023/08/30 03:21:14;;;;;;;;;22.20;22.20;;;;;20.88;49.13;98171.75;5031285;28;9084;-77
2023/08/30 03:23:43;;;;;;;;;15.80;15.80;;;;;20.82;49.32;98161.63;5051526;28;9663;-76
2023/08/30 03:26:13;;;;;;;;;24.80;24.20;;;;;20.80;49.09;98162.72;5048235;28;8862;-78
2023/08/30 03:28:43;;;;;;;;;24.00;23.60;;;;;20.51;49.88;98151.84;5030065;28;8834;-79
2023/08/30 03:31:14;;;;;;;;;20.80;20.80;;;;;20.40;50.01;98164.25;5031592;28;8850;-81
2023/08/30 03:33:43;;;;;;;;;22.80;21.60;;;;;20.45;49.59;98158.56;5030748;28;8884;-77
2023/08/30 03:36:17;;;;;;;;;27.80;27.40;;;;;20.44;49.72;98154.16;5031171;28;8874;-79
2023/08/30 03:38:46;;;;;;;;;90.25;82.75;;;;;20.41;50.16;98152.63;5013941;28;8857;-76
2023/08/30 03:41:15;;;;;;;;;30.50;29.75;;;;;20.23;50.51;98159.50;5030912;28;10473;-78
2023/08/30 03:43:46;;;;;;;;;25.20;25.00;;;;;20.25;50.56;98161.03;5030679;28;9040;-78
2023/08/30 03:46:14;;;;;;;;;22.20;22.20;;;;;20.00;50.74;98169.38;5047058;28;8912;-79
2023/08/30 03:48:43;;;;;;;;;25.40;22.60;;;;;19.81;51.44;98172.69;5030833;28;9426;-76
2023/08/30 03:51:12;;;;;;;;;25.00;22.00;;;;;19.76;51.62;98177.53;5091542;28;8872;-78
2023/08/30 03:53:43;;;;;;;;;22.80;20.20;;;;;19.76;51.81;98177.53;5091574;28;8843;-80
2023/08/30 03:56:11;;;;;;;;;24.40;24.00;;;;;19.84;51.66;98178.63;5091446;28;8905;-78
2023/08/30 03:58:40;;;;;;;;;29.20;22.20;;;;;19.96;51.18;98179.44;5092332;28;8850;-78
2023/08/30 04:01:09;;;;;;;;;21.00;20.60;;;;;20.02;50.79;98180.75;5094369;28;8944;-78
2023/08/30 04:03:39;;;;;;;;;20.60;20.20;;;;;20.01;51.22;98171.03;5124540;28;8831;-78
2023/08/30 04:06:08;;;;;;;;;25.40;23.40;;;;;19.87;51.26;98178.34;5081282;28;8859;-77
2023/08/30 04:08:37;;;;;;;;;38.50;33.50;;;;;20.00;50.89;98167.53;5041457;28;8969;-78
2023/08/30 04:11:08;;;;;;;;;25.40;23.00;;;;;20.05;50.35;98177.84;5071481;28;8890;-76
2023/08/30 04:13:37;;;;;;;;;23.40;22.00;;;;;19.89;50.74;98173.75;5067005;28;8930;-79
2023/08/30 04:16:06;;;;;;;;;18.80;17.60;;;;;19.86;50.65;98176.69;5049596;28;8840;-81
2023/08/30 04:18:38;;;;;;;;;20.40;18.00;;;;;19.94;49.88;98183.22;5050217;28;8892;-79
2023/08/30 04:21:08;;;;;;;;;22.40;20.00;;;;;20.00;50.52;98172.88;5066564;28;8921;-77
2023/08/30 04:23:37;;;;;;;;;25.40;25.40;;;;;20.16;50.24;98175.16;5032776;28;8975;-79
2023/08/30 04:26:06;;;;;;;;;24.20;24.20;;;;;20.31;50.36;98172.19;5066358;28;8859;-78
2023/08/30 04:28:38;;;;;;;;;29.20;28.80;;;;;20.44;49.76;98176.41;5050164;28;8870;-79
2023/08/30 04:31:06;;;;;;;;;67.67;55.33;;;;;20.55;49.03;98155.94;5049315;28;9593;-77
2023/08/30 04:33:35;;;;;;;;;23.40;21.60;;;;;20.56;49.15;98150.47;5066394;28;9081;-78
2023/08/30 04:36:05;;;;;;;;;25.40;21.80;;;;;20.63;48.92;98154.34;5066178;28;8836;-78
2023/08/30 04:38:34;;;;;;;;;18.40;18.40;;;;;20.66;48.98;98154.06;5016404;28;8890;-79
2023/08/30 04:41:13;;;;;;;;;18.20;18.20;;;;;20.74;49.20;98158.72;5067573;28;8883;-79
2023/08/30 04:43:43;;;;;;;;;21.00;21.00;;;;;20.83;48.94;98165.97;5063605;28;8842;-78
2023/08/30 04:46:12;;;;;;;;;23.20;23.20;;;;;20.91;48.55;98165.31;5074305;28;8869;-78
2023/08/30 04:48:41;;;;;;;;;20.80;19.20;;;;;21.01;48.41;98168.06;5057293;28;9003;-78
2023/08/30 04:51:10;;;;;;;;;17.60;16.00;;;;;21.06;48.70;98161.34;5074519;28;8837;-76
2023/08/30 04:53:41;;;;;;;;;18.80;18.80;;;;;21.10;48.72;98153.91;5093426;28;8830;-78
2023/08/30 04:56:12;;;;;;;;;45.00;36.75;;;;;21.22;48.56;98162.69;5089601;28;8870;-77
2023/08/30 04:58:43;;;;;;;;;27.25;24.50;;;;;21.28;48.29;98156.81;5099854;28;8938;-75
2023/08/30 05:01:14;;;;;;;;;19.40;19.40;;;;;21.37;48.38;98157.81;5109030;28;8851;-78
2023/08/30 05:03:47;;;;;;;;;17.20;17.20;;;;;21.49;47.93;98159.41;5103401;28;9442;-80
2023/08/30 05:06:17;;;;;;;;;20.80;20.00;;;;;21.57;47.90;98161.41;5094358;28;9585;-78
2023/08/30 05:08:46;;;;;;;;;16.40;16.00;;;;;21.63;47.70;98164.44;5077419;28;8828;-81
2023/08/30 05:11:15;;;;;;;;;22.60;22.40;;;;;21.81;47.33;98161.09;5090377;28;9641;-78
2023/08/30 05:13:46;;;;;;;;;19.80;19.00;;;;;21.96;47.10;98165.03;5090680;28;8866;-79
2023/08/30 05:16:15;;;;;;;;;24.00;23.00;;;;;22.15;47.06;98158.03;5090152;28;8887;-80
2023/08/30 05:18:44;;;;;;;;;24.60;23.00;;;;;22.35;47.17;98161.56;5035229;28;8860;-78
2023/08/30 05:21:12;;;;;;;;;24.80;23.40;;;;;22.53;46.86;98172.41;5035372;28;8917;-79
2023/08/30 05:23:42;;;;;;;;;24.60;22.60;;;;;22.70;46.50;98160.13;5067992;28;8882;-78
2023/08/30 05:26:12;;;;;;;;;23.20;23.00;;;;;22.85;46.02;98156.00;5051906;28;8856;-77
2023/08/30 05:28:41;;;;;;;;;18.75;18.75;;;;;23.02;45.45;98151.78;5051295;28;9690;-77
2023/08/30 05:31:11;;;;;;;;;30.50;28.00;;;;;23.20;44.92;98143.78;5051484;28;9014;-79
2023/08/30 05:34:00;;;;;;;;;31.75;30.75;;;;;23.39;44.71;98150.91;5034945;28;8866;-78
2023/08/30 05:36:49;;;;;;;;;28.40;27.40;;;;;23.39;44.28;98162.50;5068287;28;8843;-79
2023/08/30 05:39:33;;;;;;;;;27.00;25.40;;;;;22.36;46.51;98173.97;5068324;28;8875;-76
2023/08/30 05:42:02;;;;;;;;;28.75;27.75;;;;;22.63;46.70;98186.63;5051685;28;8913;-79
2023/08/30 05:44:32;;;;;;;;;25.00;24.00;;;;;22.57;45.69;98188.06;5051721;28;8832;-79
2023/08/30 05:47:01;;;;;;;;;26.75;26.75;;;;;22.77;45.80;98183.53;5068411;28;9651;-77
2023/08/30 05:49:31;;;;;;;;;30.00;28.75;;;;;22.83;45.11;98187.47;5051660;28;8836;-81
2023/08/30 05:52:00;;;;;;;;;29.50;28.00;;;;;22.97;45.05;98188.88;5051010;28;8867;-79
2023/08/30 05:54:31;;;;;;;;;29.75;29.50;;;;;23.09;44.52;98193.09;5051743;28;8874;-78
2023/08/30 05:56:59;;;;;;;;;27.50;25.00;;;;;23.08;44.22;98209.31;5028438;28;8896;-77
2023/08/30 05:59:28;;;;;;;;;24.20;24.20;;;;;22.94;44.47;98202.53;5098966;28;8982;-77
2023/08/30 06:01:58;;;;;;;;;17.40;17.20;;;;;23.07;44.57;98196.88;5059927;28;8966;-76
2023/08/30 06:04:30;;;;;;;;;25.80;23.60;;;;;23.19;44.06;98201.94;5091019;28;8858;-77
2023/08/30 06:06:59;;;;;;;;;21.80;20.60;;;;;23.04;44.38;98202.56;5072940;28;8972;-79
2023/08/30 06:09:28;;;;;;;;;26.20;25.00;;;;;23.14;44.16;98214.06;5056318;28;9733;-79
2023/08/30 06:11:57;;;;;;;;;22.40;21.20;;;;;23.21;44.34;98217.88;5090594;28;8947;-77
2023/08/30 06:14:26;;;;;;;;;26.00;23.60;;;;;23.16;44.25;98223.66;5072259;28;8964;-78
2023/08/30 06:16:54;;;;;;;;;22.80;22.40;;;;;23.29;44.06;98233.22;5055206;28;8854;-79
2023/08/30 06:19:24;;;;;;;;;22.40;21.80;;;;;23.06;44.76;98243.44;5090209;28;8858;-77
2023/08/30 06:21:54;;;;;;;;;19.80;19.60;;;;;23.17;44.64;98240.59;5090438;28;8853;-77
2023/08/30 06:24:23;;;;;;;;;22.60;21.40;;;;;23.07;44.99;98256.72;5088764;28;8841;-77
2023/08/30 06:26:53;;;;;;;;;23.40;23.20;;;;;23.15;44.92;98253.31;5089935;28;8857;-77
2023/08/30 06:29:22;;;;;;;;;30.00;26.00;;;;;22.79;45.14;98258.41;5089842;28;8842;-79
2023/08/30 06:31:50;;;;;;;;;26.60;24.00;;;;;22.86;45.09;98255.97;5089682;28;8842;-79
2023/08/30 06:34:19;;;;;;;;;24.40;23.80;;;;;22.94;44.66;98257.00;5090146;28;8854;-80
2023/08/30 06:36:49;;;;;;;;;24.40;24.40;;;;;22.95;44.44;98264.03;5089492;28;9591;-79
2023/08/30 06:39:20;;;;;;;;;27.40;25.20;;;;;22.58;45.46;98255.84;5054883;28;8836;-76
2023/08/30 06:41:48;;;;;;;;;28.20;23.80;;;;;22.60;45.44;98264.59;5110136;28;8890;-79
2023/08/30 06:44:18;;;;;;;;;31.75;30.50;;;;;22.04;46.84;98263.34;5095950;28;8958;-77
2023/08/30 06:46:47;;;;;;;;;27.20;26.00;;;;;21.87;47.26;98258.66;5089876;28;8894;-79
2023/08/30 06:49:16;;;;;;;;;36.75;33.00;;;;;21.84;47.22;98260.63;5037670;28;8842;-76
2023/08/30 06:51:45;;;;;;;;;26.20;25.20;;;;;21.83;46.86;98252.75;5090334;28;8849;-77
2023/08/30 06:54:14;;;;;;;;;27.80;24.20;;;;;21.95;46.71;98262.34;5079806;28;8853;-77
2023/08/30 06:56:57;;;;;;;;;23.60;23.60;;;;;22.60;45.17;98251.22;5104992;28;8849;-78
2023/08/30 06:59:26;;;;;;;;;23.40;22.20;;;;;22.88;44.49;98260.19;5094815;28;8842;-81
2023/08/30 07:01:55;;;;;;;;;25.80;23.80;;;;;23.04;43.99;98259.66;5088889;28;9757;-78
2023/08/30 07:04:24;;;;;;;;;26.60;24.20;;;;;23.21;43.64;98260.75;5069339;28;8826;-80
2023/08/30 07:06:53;;;;;;;;;27.40;26.40;;;;;22.98;44.14;98273.66;5090071;28;9646;-77
2023/08/30 07:09:23;;;;;;;;;26.80;25.80;;;;;23.08;43.98;98290.56;5092862;28;8842;-79
2023/08/30 07:11:53;;;;;;;;;24.60;24.60;;;;;23.10;44.97;98285.06;5089969;28;8899;-77
2023/08/30 07:14:22;;;;;;;;;28.60;24.40;;;;;23.27;44.92;98286.16;5089431;28;9625;-79
2023/08/30 07:16:51;;;;;;;;;27.60;26.00;;;;;23.30;45.00;98289.41;5089810;28;8885;-79
2023/08/30 07:19:20;;;;;;;;;23.80;22.00;;;;;23.37;44.30;98282.47;5070811;28;8861;-79
2023/08/30 07:21:48;;;;;;;;;20.40;20.40;;;;;23.47;44.33;98286.94;5053628;28;8854;-82
2023/08/30 07:24:17;;;;;;;;;19.20;18.80;;;;;23.52;43.99;98288.22;5020782;28;8878;-79
2023/08/30 07:26:46;;;;;;;;;20.80;18.20;;;;;23.53;42.52;98287.25;5088901;28;8841;-76
2023/08/30 07:29:16;;;;;;;;;17.20;15.20;;;;;23.51;41.53;98285.69;5089112;28;8856;-77
2023/08/30 07:31:45;;;;;;;;;16.20;16.20;;;;;23.65;40.93;98287.91;5089292;28;8930;-76
2023/08/30 07:34:14;;;;;;;;;16.40;16.40;;;;;23.62;40.41;98290.91;5088881;28;8846;-80
2023/08/30 07:36:43;;;;;;;;;14.00;13.00;;;;;23.81;39.45;98303.41;5070774;28;8881;-79
2023/08/30 07:39:16;;;;;;;;;14.00;14.00;;;;;23.87;38.36;98299.28;5070760;28;8856;-78
2023/08/30 07:41:44;;;;;;;;;18.20;18.20;;;;;23.52;38.96;98293.59;5089124;28;8858;-77
2023/08/30 07:44:13;;;;;;;;;17.00;17.00;;;;;23.18;39.60;98303.94;5089140;28;8850;-79
2023/08/30 07:46:43;;;;;;;;;14.80;13.00;;;;;23.04;40.00;98301.72;5071009;28;8834;-79
2023/08/30 07:49:12;;;;;;;;;15.80;15.40;;;;;23.36;39.73;98298.69;5089287;28;8849;-80
2023/08/30 07:51:41;;;;;;;;;18.40;15.80;;;;;23.30;38.47;98304.63;5098163;28;8866;-76
2023/08/30 07:54:10;;;;;;;;;14.20;13.40;;;;;23.54;38.12;98304.16;5102550;28;8968;-77
2023/08/30 07:56:39;;;;;;;;;11.40;10.60;;;;;23.67;37.09;98312.75;5097349;28;8878;-78
2023/08/30 07:59:07;;;;;;;;;13.60;13.60;;;;;23.69;36.25;98318.81;5090928;28;8932;-80
2023/08/30 08:01:36;;;;;;;;;14.00;13.80;;;;;23.83;36.42;98322.00;5089520;28;8830;-77
2023/08/30 08:04:07;;;;;;;;;8.60;7.60;;;;;23.62;36.92;98322.22;5070764;28;8842;-78
2023/08/30 08:06:38;;;;;;;;;11.00;10.80;;;;;23.42;35.99;98324.09;5070159;28;8858;-80
2023/08/30 08:09:09;;;;;;;;;5.60;5.60;;;;;23.49;36.58;98328.72;5039003;28;8888;-78
2023/08/30 08:11:39;;;;;;;;;11.00;11.00;;;;;23.61;36.43;98326.75;5088480;28;8938;-78
2023/08/30 08:14:08;;;;;;;;;9.60;9.60;;;;;23.52;37.02;98331.13;5088515;28;8854;-78
2023/08/30 08:16:37;;;;;;;;;8.60;8.40;;;;;23.61;36.42;98331.28;5074537;28;8845;-78
2023/08/30 08:19:08;;;;;;;;;9.80;8.80;;;;;23.76;36.43;98329.81;5092758;28;8830;-80
2023/08/30 08:21:36;;;;;;;;;5.60;5.60;;;;;23.36;37.30;98331.72;5092980;28;8992;-78
2023/08/30 08:24:06;;;;;;;;;9.00;9.00;;;;;23.15;37.43;98328.38;5093094;28;8861;-77
2023/08/30 08:26:35;;;;;;;;;10.40;9.60;;;;;22.96;38.45;98330.06;5092910;28;8830;-77
2023/08/30 08:29:05;;;;;;;;;11.60;10.80;;;;;22.35;39.23;98328.41;5093557;28;8841;-79
2023/08/30 08:31:33;;;;;;;;;7.20;7.20;;;;;22.57;39.37;98326.47;5092682;28;8837;-80
2023/08/30 08:34:11;;;;;;;;;8.20;7.80;;;;;22.85;39.17;98323.97;5092653;28;9002;-79
2023/08/30 08:36:41;;;;;;;;;9.00;9.00;;;;;22.54;39.48;98314.22;5092341;28;8907;-79
2023/08/30 08:39:13;;;;;;;;;9.00;9.00;;;;;22.56;39.75;98324.78;5024325;28;8925;-79
2023/08/30 08:41:44;;;;;;;;;8.20;8.20;;;;;22.98;40.37;98320.03;5074075;28;8830;-77
2023/08/30 08:44:14;;;;;;;;;11.80;10.20;;;;;23.30;39.35;98321.56;5092795;28;8834;-76
2023/08/30 08:46:44;;;;;;;;;8.20;8.20;;;;;23.41;38.25;98322.38;5093000;28;8864;-80
2023/08/30 08:49:16;;;;;;;;;11.00;11.00;;;;;23.66;38.51;98313.75;5094061;28;8825;-81
2023/08/30 08:51:46;;;;;;;;;15.40;11.80;;;;;23.41;37.50;98307.13;5094317;28;8866;-76
2023/08/30 08:54:16;;;;;;;;;9.60;9.60;;;;;23.49;37.75;98304.59;5096823;28;8872;-78
2023/08/30 08:56:46;;;;;;;;;9.40;8.60;;;;;23.75;37.50;98307.50;5095525;28;9028;-81
2023/08/30 08:59:15;;;;;;;;;8.80;8.60;;;;;24.01;37.33;98305.97;5087062;28;8844;-77
2023/08/30 09:01:44;;;;;;;;;9.60;9.60;;;;;24.18;37.05;98307.06;5115923;28;8882;-78
2023/08/30 09:04:15;;;;;;;;;7.20;7.20;;;;;24.36;37.17;98310.63;5121776;28;8843;-77
2023/08/30 09:06:44;;;;;;;;;9.80;8.40;;;;;24.51;37.39;98311.81;5121751;28;8855;-77
2023/08/30 09:09:14;;;;;;;;;8.80;8.80;;;;;24.62;37.33;98299.13;5101683;28;8848;-78
2023/08/30 09:11:43;;;;;;;;;12.00;11.00;;;;;23.70;38.55;98301.72;5102611;28;8859;-78
2023/08/30 09:14:20;;;;;;;;;16.60;15.60;;;;;24.02;42.53;98305.84;5108392;28;8845;-76
2023/08/30 09:16:56;;;;;;;;;15.60;13.80;;;;;24.14;40.97;98301.13;5093775;28;8857;-78
2023/08/30 09:19:26;;;;;;;;;15.00;14.00;;;;;23.22;41.46;98299.97;5096827;28;8842;-77
2023/08/30 09:21:56;;;;;;;;;8.20;7.00;;;;;22.35;41.72;98296.28;5080327;28;8896;-77
2023/08/30 09:24:26;;;;;;;;;14.40;12.60;;;;;22.59;44.03;98295.03;5040400;28;8830;-78
2023/08/30 09:26:56;;;;;;;;;12.60;11.80;;;;;23.15;44.07;98294.34;5071996;28;8826;-79
2023/08/30 09:29:25;;;;;;;;;10.80;10.00;;;;;22.99;41.54;98289.56;5090996;28;8838;-77
2023/08/30 09:31:54;;;;;;;;;8.80;8.80;;;;;23.49;42.11;98284.97;5091233;28;8946;-80
2023/08/30 09:34:25;;;;;;;;;12.80;12.80;;;;;23.17;42.02;98295.06;5091163;28;8866;-80
2023/08/30 09:36:56;;;;;;;;;11.00;11.00;;;;;23.25;41.38;98293.50;5089762;28;8845;-78
2023/08/30 09:39:25;;;;;;;;;14.00;14.00;;;;;23.09;41.53;98296.75;5091507;28;8862;-79
2023/08/30 09:41:55;;;;;;;;;12.40;11.40;;;;;23.28;40.42;98294.06;5091661;28;8853;-79
2023/08/30 09:44:25;;;;;;;;;13.60;12.80;;;;;23.60;40.34;98300.06;5091201;28;8853;-78
2023/08/30 09:46:56;;;;;;;;;17.20;15.60;;;;;23.26;40.39;98301.41;5098926;28;8850;-78
2023/08/30 09:49:27;;;;;;;;;11.80;11.80;;;;;23.69;39.35;98304.56;5101892;28;8850;-77
2023/08/30 09:52:00;;;;;;;;;7.00;7.00;;;;;23.57;40.32;98303.91;5094939;28;8855;-78
2023/08/30 09:54:32;;;;;;;;;14.20;13.00;;;;;23.90;40.11;98305.19;5113168;28;9608;-78
2023/08/30 09:57:08;;;;;;;;;11.60;11.00;;;;;24.06;38.58;98307.22;5112084;28;8990;-79
2023/08/30 09:59:38;;;;;;;;;7.80;7.20;;;;;24.41;37.44;98313.69;5111544;28;8850;-78
2023/08/30 10:02:09;;;;;;;;;12.80;11.80;;;;;24.70;37.35;98318.03;5111231;28;8836;-78
2023/08/30 10:04:40;;;;;;;;;11.80;11.40;;;;;24.91;37.36;98323.97;5110815;28;9574;-82
2023/08/30 10:07:12;;;;;;;;;9.40;9.40;;;;;25.07;36.73;98330.50;5111454;28;8890;-77
2023/08/30 10:09:44;;;;;;;;;8.00;8.00;;;;;25.25;35.64;98323.25;5109547;28;8847;-79
2023/08/30 10:12:33;;;;;;;;;8.40;8.20;;;;;25.33;34.95;98311.75;5090591;28;8857;-80
2023/08/30 10:15:02;;;;;;;;;8.40;6.80;;;;;25.50;34.32;98308.16;5090882;28;8910;-78
2023/08/30 10:17:34;;;;;;;;;9.80;9.80;;;;;25.64;34.35;98300.50;5091120;28;8837;-77
2023/08/30 10:20:06;;;;;;;;;11.80;11.80;;;;;25.90;34.85;98295.94;5090183;28;8933;-80
2023/08/30 10:22:38;;;;;;;;;11.40;10.40;;;;;26.12;34.96;98292.88;5090197;28;9604;-78
2023/08/30 10:25:13;;;;;;;;;9.60;8.80;;;;;26.31;33.92;98292.59;5089875;28;8841;-79
2023/08/30 10:27:47;;;;;;;;;8.00;8.00;;;;;26.53;33.41;98290.28;5089907;28;8961;-78
2023/08/30 10:30:17;;;;;;;;;7.80;7.80;;;;;26.65;32.53;98289.81;5038344;28;8849;-77
2023/08/30 10:32:46;;;;;;;;;8.20;7.40;;;;;26.79;31.68;98293.69;5070676;28;8865;-77
2023/08/30 10:35:17;;;;;;;;;7.00;6.00;;;;;26.87;30.94;98292.84;5090128;28;8860;-80
2023/08/30 10:37:57;;;;;;;;;9.20;6.80;;;;;27.25;31.00;98291.38;5089843;28;8826;-76
2023/08/30 10:40:26;;;;;;;;;6.20;6.20;;;;;27.36;29.91;98292.03;5090474;28;8834;-80
2023/08/30 10:43:01;;;;;;;;;6.20;4.00;;;;;27.68;29.47;98293.84;5092247;28;9651;-77
2023/08/30 10:45:31;;;;;;;;;4.80;4.80;;;;;27.76;28.55;98285.75;5100460;28;8907;-76
2023/08/30 10:48:00;;;;;;;;;7.60;7.20;;;;;27.82;30.17;98289.59;5094128;28;8854;-78
2023/08/30 10:50:31;;;;;;;;;4.20;3.80;;;;;27.93;30.49;98289.22;5092464;28;8842;-76
2023/08/30 10:53:01;;;;;;;;;8.60;8.60;;;;;27.99;30.09;98283.13;5089781;28;9578;-79
2023/08/30 10:55:30;;;;;;;;;12.60;11.00;;;;;28.05;29.95;98283.44;5071762;28;8861;-78
2023/08/30 10:58:02;;;;;;;;;5.40;5.40;;;;;27.98;29.82;98286.81;5089439;28;9073;-77
2023/08/30 11:00:32;;;;;;;;;7.40;6.80;;;;;27.94;30.04;98290.88;5089658;28;8837;-78
2023/08/30 11:03:01;;;;;;;;;6.40;6.40;;;;;28.02;29.34;98292.72;5089200;28;8830;-78
2023/08/30 11:05:31;;;;;;;;;11.20;10.60;;;;;28.01;29.70;98294.59;5089266;28;8956;-77
2023/08/30 11:08:01;;;;;;;;;9.00;9.00;;;;;28.00;29.70;98294.75;5089500;28;8972;-79
2023/08/30 11:10:30;;;;;;;;;9.20;7.80;;;;;28.15;29.40;98295.72;5089266;28;8830;-79
2023/08/30 11:12:59;;;;;;;;;8.20;7.00;;;;;27.98;29.26;98294.09;5088970;28;8838;-78
2023/08/30 11:15:28;;;;;;;;;7.60;7.00;;;;;28.19;29.35;98293.50;5088982;28;8922;-78
2023/08/30 11:18:03;;;;;;;;;6.20;6.20;;;;;28.03;29.50;98294.41;5089052;28;8916;-77
2023/08/30 11:20:32;;;;;;;;;6.40;6.40;;;;;28.08;30.12;98299.28;5067780;28;8929;-76
2023/08/30 11:23:03;;;;;;;;;12.60;11.00;;;;;27.92;31.03;98294.78;5069420;28;8842;-79
2023/08/30 11:25:32;;;;;;;;;11.20;11.20;;;;;27.38;32.15;98290.00;5068963;28;8838;-79
2023/08/30 11:28:05;;;;;;;;;11.60;8.00;;;;;27.48;30.95;98287.09;5067143;28;9591;-78
2023/08/30 11:30:34;;;;;;;;;7.20;7.00;;;;;27.61;30.97;98292.88;5050645;28;8847;-77
2023/08/30 11:33:04;;;;;;;;;8.20;7.20;;;;;27.88;30.13;98294.28;5068878;28;9972;-79
2023/08/30 11:35:33;;;;;;;;;7.00;6.40;;;;;27.86;29.77;98284.69;5069342;28;8888;-78
2023/08/30 11:38:03;;;;;;;;;6.80;6.40;;;;;27.86;30.04;98287.41;5084596;28;8912;-78
2023/08/30 11:40:33;;;;;;;;;8.80;8.80;;;;;27.78;29.06;98288.25;5070964;28;8874;-77
2023/08/30 11:43:03;;;;;;;;;7.40;7.40;;;;;27.60;30.35;98291.19;5080160;28;8835;-79